sensor_id;sensor_type;location;lat;lon;timestamp;P1;durP1;ratioP1;P2;durP2;ratioP2
21721;SDS011;11023;48.274;7.794;2023-06-22T00:01:47;18.60;;;10.57;;
21721;SDS011;11023;48.274;7.794;2023-06-22T00:04:22;14.90;;;11.40;;
21721;SDS011;11023;48.274;7.794;2023-06-22T00:06:53;15.98;;;11.60;;
21721;SDS011;11023;48.274;7.794;2023-06-22T00:09:31;21.63;;;12.48;;
21721;SDS011;11023;48.274;7.794;2023-06-22T00:12:07;20.65;;;12.05;;
21721;SDS011;11023;48.274;7.794;2023-06-22T00:14:34;20.05;;;13.18;;
21721;SDS011;11023;48.274;7.794;2023-06-22T00:17:04;19.80;;;13.73;;
21721;SDS011;11023;48.274;7.794;2023-06-22T00:19:37;24.67;;;13.73;;
21721;SDS011;11023;48.274;7.794;2023-06-22T00:25:17;18.30;;;12.88;;
21721;SDS011;11023;48.274;7.794;2023-06-22T00:27:46;17.88;;;13.07;;
21721;SDS011;11023;48.274;7.794;2023-06-22T00:33:03;18.42;;;13.05;;
21721;SDS011;11023;48.274;7.794;2023-06-22T00:35:41;16.48;;;12.90;;
21721;SDS011;11023;48.274;7.794;2023-06-22T00:38:17;17.90;;;12.95;;
21721;SDS011;11023;48.274;7.794;2023-06-22T00:40:43;14.32;;;11.45;;
21721;SDS011;11023;48.274;7.794;2023-06-22T00:43:15;21.75;;;12.15;;
21721;SDS011;11023;48.274;7.794;2023-06-22T00:45:47;17.85;;;11.32;;
21721;SDS011;11023;48.274;7.794;2023-06-22T00:48:26;18.73;;;12.23;;
21721;SDS011;11023;48.274;7.794;2023-06-22T00:50:57;20.17;;;13.50;;
21721;SDS011;11023;48.274;7.794;2023-06-22T00:56:11;18.77;;;11.95;;
21721;SDS011;11023;48.274;7.794;2023-06-22T01:01:40;19.63;;;12.55;;
21721;SDS011;11023;48.274;7.794;2023-06-22T01:04:12;23.63;;;14.10;;
21721;SDS011;11023;48.274;7.794;2023-06-22T01:10:30;21.40;;;13.40;;
21721;SDS011;11023;48.274;7.794;2023-06-22T01:16:23;20.95;;;13.77;;
21721;SDS011;11023;48.274;7.794;2023-06-22T01:18:59;20.70;;;14.67;;
21721;SDS011;11023;48.274;7.794;2023-06-22T01:21:39;19.42;;;14.25;;
21721;SDS011;11023;48.274;7.794;2023-06-22T01:24:26;17.20;;;13.05;;
21721;SDS011;11023;48.274;7.794;2023-06-22T01:27:32;17.88;;;13.75;;
21721;SDS011;11023;48.274;7.794;2023-06-22T01:30:10;19.33;;;13.23;;
21721;SDS011;11023;48.274;7.794;2023-06-22T01:32:38;22.75;;;12.77;;
21721;SDS011;11023;48.274;7.794;2023-06-22T01:35:05;18.70;;;13.23;;
21721;SDS011;11023;48.274;7.794;2023-06-22T01:37:33;19.13;;;12.70;;
21721;SDS011;11023;48.274;7.794;2023-06-22T01:40:01;17.45;;;12.60;;
21721;SDS011;11023;48.274;7.794;2023-06-22T01:42:31;21.73;;;13.82;;
21721;SDS011;11023;48.274;7.794;2023-06-22T01:45:06;21.75;;;13.80;;
21721;SDS011;11023;48.274;7.794;2023-06-22T01:47:36;20.83;;;13.68;;
21721;SDS011;11023;48.274;7.794;2023-06-22T01:50:05;23.75;;;13.80;;
21721;SDS011;11023;48.274;7.794;2023-06-22T01:52:34;21.25;;;13.95;;
21721;SDS011;11023;48.274;7.794;2023-06-22T01:55:01;25.20;;;13.70;;
21721;SDS011;11023;48.274;7.794;2023-06-22T01:57:35;22.65;;;13.93;;
21721;SDS011;11023;48.274;7.794;2023-06-22T02:00:04;25.15;;;13.95;;
21721;SDS011;11023;48.274;7.794;2023-06-22T02:02:40;25.67;;;14.13;;
21721;SDS011;11023;48.274;7.794;2023-06-22T02:05:31;23.75;;;14.25;;
21721;SDS011;11023;48.274;7.794;2023-06-22T02:10:46;26.65;;;13.48;;
21721;SDS011;11023;48.274;7.794;2023-06-22T02:15:54;16.85;;;12.63;;
21721;SDS011;11023;48.274;7.794;2023-06-22T02:18:27;19.85;;;13.15;;
21721;SDS011;11023;48.274;7.794;2023-06-22T02:20:55;22.35;;;13.18;;
21721;SDS011;11023;48.274;7.794;2023-06-22T02:23:26;23.30;;;12.73;;
21721;SDS011;11023;48.274;7.794;2023-06-22T02:26:01;22.60;;;13.15;;
21721;SDS011;11023;48.274;7.794;2023-06-22T02:28:33;21.02;;;12.60;;
21721;SDS011;11023;48.274;7.794;2023-06-22T02:30:59;28.33;;;13.23;;
21721;SDS011;11023;48.274;7.794;2023-06-22T02:33:25;19.67;;;12.52;;
21721;SDS011;11023;48.274;7.794;2023-06-22T02:35:57;22.88;;;13.13;;
21721;SDS011;11023;48.274;7.794;2023-06-22T02:38:23;20.38;;;12.43;;
21721;SDS011;11023;48.274;7.794;2023-06-22T02:40:57;25.13;;;14.07;;
21721;SDS011;11023;48.274;7.794;2023-06-22T02:43:28;23.23;;;13.60;;
21721;SDS011;11023;48.274;7.794;2023-06-22T02:45:57;31.58;;;13.85;;
21721;SDS011;11023;48.274;7.794;2023-06-22T02:48:35;27.42;;;14.38;;
21721;SDS011;11023;48.274;7.794;2023-06-22T02:51:04;28.75;;;15.73;;
21721;SDS011;11023;48.274;7.794;2023-06-22T02:53:52;29.77;;;16.15;;
21721;SDS011;11023;48.274;7.794;2023-06-22T02:56:22;24.63;;;15.65;;
21721;SDS011;11023;48.274;7.794;2023-06-22T02:58:52;32.17;;;16.15;;
21721;SDS011;11023;48.274;7.794;2023-06-22T03:01:19;25.73;;;16.00;;
21721;SDS011;11023;48.274;7.794;2023-06-22T03:03:49;31.58;;;16.00;;
21721;SDS011;11023;48.274;7.794;2023-06-22T03:06:17;25.73;;;16.33;;
21721;SDS011;11023;48.274;7.794;2023-06-22T03:08:51;24.42;;;17.23;;
21721;SDS011;11023;48.274;7.794;2023-06-22T03:11:20;29.88;;;16.40;;
21721;SDS011;11023;48.274;7.794;2023-06-22T03:13:51;28.30;;;17.00;;
21721;SDS011;11023;48.274;7.794;2023-06-22T03:16:27;29.38;;;16.98;;
21721;SDS011;11023;48.274;7.794;2023-06-22T03:18:58;26.05;;;17.10;;
21721;SDS011;11023;48.274;7.794;2023-06-22T03:21:29;25.38;;;18.42;;
21721;SDS011;11023;48.274;7.794;2023-06-22T03:23:55;25.48;;;18.30;;
21721;SDS011;11023;48.274;7.794;2023-06-22T03:26:21;32.47;;;18.48;;
21721;SDS011;11023;48.274;7.794;2023-06-22T03:28:48;33.47;;;18.88;;
21721;SDS011;11023;48.274;7.794;2023-06-22T03:31:17;29.10;;;17.95;;
21721;SDS011;11023;48.274;7.794;2023-06-22T03:33:47;32.05;;;17.98;;
21721;SDS011;11023;48.274;7.794;2023-06-22T03:36:16;29.42;;;18.75;;
21721;SDS011;11023;48.274;7.794;2023-06-22T03:38:47;31.15;;;17.70;;
21721;SDS011;11023;48.274;7.794;2023-06-22T03:41:17;33.10;;;18.63;;
21721;SDS011;11023;48.274;7.794;2023-06-22T03:43:48;27.15;;;17.70;;
21721;SDS011;11023;48.274;7.794;2023-06-22T03:46:14;28.35;;;17.92;;
21721;SDS011;11023;48.274;7.794;2023-06-22T03:48:39;27.80;;;17.63;;
21721;SDS011;11023;48.274;7.794;2023-06-22T03:51:08;25.50;;;17.13;;
21721;SDS011;11023;48.274;7.794;2023-06-22T03:53:33;27.80;;;17.85;;
21721;SDS011;11023;48.274;7.794;2023-06-22T03:56:02;28.52;;;18.25;;
21721;SDS011;11023;48.274;7.794;2023-06-22T03:58:28;27.40;;;17.70;;
21721;SDS011;11023;48.274;7.794;2023-06-22T04:00:58;32.90;;;18.73;;
21721;SDS011;11023;48.274;7.794;2023-06-22T04:03:25;30.27;;;18.25;;
21721;SDS011;11023;48.274;7.794;2023-06-22T04:05:51;26.42;;;17.58;;
21721;SDS011;11023;48.274;7.794;2023-06-22T04:08:16;26.23;;;18.15;;
21721;SDS011;11023;48.274;7.794;2023-06-22T04:10:45;28.52;;;18.63;;
21721;SDS011;11023;48.274;7.794;2023-06-22T04:13:11;29.50;;;17.60;;
21721;SDS011;11023;48.274;7.794;2023-06-22T04:15:37;21.42;;;17.40;;
21721;SDS011;11023;48.274;7.794;2023-06-22T04:18:07;26.88;;;17.45;;
21721;SDS011;11023;48.274;7.794;2023-06-22T04:20:32;29.70;;;18.90;;
21721;SDS011;11023;48.274;7.794;2023-06-22T04:22:58;28.58;;;18.50;;
21721;SDS011;11023;48.274;7.794;2023-06-22T04:25:26;26.30;;;18.65;;
21721;SDS011;11023;48.274;7.794;2023-06-22T04:27:52;29.30;;;18.05;;
21721;SDS011;11023;48.274;7.794;2023-06-22T04:30:18;28.73;;;17.92;;
21721;SDS011;11023;48.274;7.794;2023-06-22T04:32:55;27.58;;;17.35;;
21721;SDS011;11023;48.274;7.794;2023-06-22T04:35:29;25.67;;;17.35;;
21721;SDS011;11023;48.274;7.794;2023-06-22T04:37:58;28.13;;;18.48;;
21721;SDS011;11023;48.274;7.794;2023-06-22T04:40:26;24.33;;;17.08;;
21721;SDS011;11023;48.274;7.794;2023-06-22T04:42:55;26.98;;;18.02;;
21721;SDS011;11023;48.274;7.794;2023-06-22T04:45:21;29.45;;;18.75;;
21721;SDS011;11023;48.274;7.794;2023-06-22T04:47:52;25.45;;;18.20;;
21721;SDS011;11023;48.274;7.794;2023-06-22T04:50:26;31.30;;;17.45;;
21721;SDS011;11023;48.274;7.794;2023-06-22T04:52:59;26.17;;;17.25;;
21721;SDS011;11023;48.274;7.794;2023-06-22T04:55:32;30.52;;;18.38;;
21721;SDS011;11023;48.274;7.794;2023-06-22T04:58:01;33.72;;;18.10;;
21721;SDS011;11023;48.274;7.794;2023-06-22T05:00:32;25.27;;;16.58;;
21721;SDS011;11023;48.274;7.794;2023-06-22T05:03:10;25.13;;;16.75;;
21721;SDS011;11023;48.274;7.794;2023-06-22T05:05:51;26.13;;;16.88;;
21721;SDS011;11023;48.274;7.794;2023-06-22T05:08:23;28.35;;;16.20;;
21721;SDS011;11023;48.274;7.794;2023-06-22T05:11:02;27.58;;;18.13;;
21721;SDS011;11023;48.274;7.794;2023-06-22T05:13:31;25.15;;;16.83;;
21721;SDS011;11023;48.274;7.794;2023-06-22T06:35:05;22.13;;;14.70;;
21721;SDS011;11023;48.274;7.794;2023-06-22T06:37:33;15.35;;;13.02;;
21721;SDS011;11023;48.274;7.794;2023-06-22T06:40:09;18.25;;;14.10;;
21721;SDS011;11023;48.274;7.794;2023-06-22T06:42:40;21.42;;;14.60;;
21721;SDS011;11023;48.274;7.794;2023-06-22T06:45:09;21.98;;;14.00;;
21721;SDS011;11023;48.274;7.794;2023-06-22T06:47:47;15.90;;;11.55;;
21721;SDS011;11023;48.274;7.794;2023-06-22T06:50:14;18.15;;;12.32;;
21721;SDS011;11023;48.274;7.794;2023-06-22T06:52:40;17.48;;;14.35;;
21721;SDS011;11023;48.274;7.794;2023-06-22T06:55:06;15.52;;;11.93;;
21721;SDS011;11023;48.274;7.794;2023-06-22T06:57:35;19.55;;;13.82;;
21721;SDS011;11023;48.274;7.794;2023-06-22T07:00:02;17.25;;;13.38;;
21721;SDS011;11023;48.274;7.794;2023-06-22T07:02:34;17.15;;;12.30;;
21721;SDS011;11023;48.274;7.794;2023-06-22T07:05:00;21.13;;;14.30;;
21721;SDS011;11023;48.274;7.794;2023-06-22T07:07:28;20.30;;;14.63;;
21721;SDS011;11023;48.274;7.794;2023-06-22T07:09:54;17.10;;;13.85;;
21721;SDS011;11023;48.274;7.794;2023-06-22T07:12:19;18.10;;;14.60;;
21721;SDS011;11023;48.274;7.794;2023-06-22T07:14:46;23.23;;;15.48;;
21721;SDS011;11023;48.274;7.794;2023-06-22T07:17:11;24.52;;;15.98;;
21721;SDS011;11023;48.274;7.794;2023-06-22T07:19:37;23.38;;;17.25;;
21721;SDS011;11023;48.274;7.794;2023-06-22T07:22:03;27.90;;;17.33;;
21721;SDS011;11023;48.274;7.794;2023-06-22T07:24:29;24.58;;;18.08;;
21721;SDS011;11023;48.274;7.794;2023-06-22T07:26:55;23.13;;;16.02;;
21721;SDS011;11023;48.274;7.794;2023-06-22T07:29:22;29.05;;;19.52;;
21721;SDS011;11023;48.274;7.794;2023-06-22T07:31:48;27.58;;;19.52;;
21721;SDS011;11023;48.274;7.794;2023-06-22T07:34:16;27.50;;;20.15;;
21721;SDS011;11023;48.274;7.794;2023-06-22T07:36:43;20.48;;;16.35;;
21721;SDS011;11023;48.274;7.794;2023-06-22T07:39:09;25.10;;;18.58;;
21721;SDS011;11023;48.274;7.794;2023-06-22T07:41:35;25.75;;;18.73;;
21721;SDS011;11023;48.274;7.794;2023-06-22T07:44:02;21.23;;;18.95;;
21721;SDS011;11023;48.274;7.794;2023-06-22T07:46:28;27.10;;;21.70;;
21721;SDS011;11023;48.274;7.794;2023-06-22T07:48:55;28.27;;;21.83;;
21721;SDS011;11023;48.274;7.794;2023-06-22T07:51:21;29.88;;;21.70;;
21721;SDS011;11023;48.274;7.794;2023-06-22T07:53:47;25.20;;;21.33;;
21721;SDS011;11023;48.274;7.794;2023-06-22T07:56:13;26.23;;;20.45;;
21721;SDS011;11023;48.274;7.794;2023-06-22T07:58:43;28.13;;;21.35;;
21721;SDS011;11023;48.274;7.794;2023-06-22T08:01:10;25.90;;;21.48;;
21721;SDS011;11023;48.274;7.794;2023-06-22T08:03:36;25.77;;;20.67;;
21721;SDS011;11023;48.274;7.794;2023-06-22T08:06:02;29.10;;;19.75;;
21721;SDS011;11023;48.274;7.794;2023-06-22T08:08:28;27.20;;;20.33;;
21721;SDS011;11023;48.274;7.794;2023-06-22T08:10:54;23.92;;;19.10;;
21721;SDS011;11023;48.274;7.794;2023-06-22T08:13:19;22.15;;;17.40;;
21721;SDS011;11023;48.274;7.794;2023-06-22T08:15:45;19.73;;;15.60;;
21721;SDS011;11023;48.274;7.794;2023-06-22T08:18:11;20.25;;;15.90;;
21721;SDS011;11023;48.274;7.794;2023-06-22T08:20:36;19.48;;;15.43;;
21721;SDS011;11023;48.274;7.794;2023-06-22T08:23:02;18.60;;;15.63;;
21721;SDS011;11023;48.274;7.794;2023-06-22T08:25:31;21.70;;;15.40;;
21721;SDS011;11023;48.274;7.794;2023-06-22T08:27:57;20.55;;;15.10;;
21721;SDS011;11023;48.274;7.794;2023-06-22T08:30:23;16.65;;;13.48;;
21721;SDS011;11023;48.274;7.794;2023-06-22T08:32:49;19.85;;;13.52;;
21721;SDS011;11023;48.274;7.794;2023-06-22T08:35:14;17.58;;;14.02;;
21721;SDS011;11023;48.274;7.794;2023-06-22T08:37:40;16.50;;;13.07;;
21721;SDS011;11023;48.274;7.794;2023-06-22T08:40:07;15.82;;;12.18;;
21721;SDS011;11023;48.274;7.794;2023-06-22T08:42:35;17.58;;;12.07;;
21721;SDS011;11023;48.274;7.794;2023-06-22T08:45:05;14.00;;;10.52;;
21721;SDS011;11023;48.274;7.794;2023-06-22T08:47:31;14.35;;;10.68;;
21721;SDS011;11023;48.274;7.794;2023-06-22T08:49:57;15.32;;;9.85;;
21721;SDS011;11023;48.274;7.794;2023-06-22T08:52:23;15.85;;;9.73;;
21721;SDS011;11023;48.274;7.794;2023-06-22T08:54:49;15.15;;;8.93;;
21721;SDS011;11023;48.274;7.794;2023-06-22T08:57:15;14.07;;;9.38;;
21721;SDS011;11023;48.274;7.794;2023-06-22T08:59:41;15.63;;;9.48;;
21721;SDS011;11023;48.274;7.794;2023-06-22T09:02:07;15.85;;;9.52;;
21721;SDS011;11023;48.274;7.794;2023-06-22T09:04:33;14.20;;;8.98;;
21721;SDS011;11023;48.274;7.794;2023-06-22T09:07:00;14.75;;;9.00;;
21721;SDS011;11023;48.274;7.794;2023-06-22T09:09:26;15.25;;;9.05;;
21721;SDS011;11023;48.274;7.794;2023-06-22T09:11:52;13.15;;;9.32;;
21721;SDS011;11023;48.274;7.794;2023-06-22T09:14:18;16.63;;;9.65;;
21721;SDS011;11023;48.274;7.794;2023-06-22T09:16:43;13.68;;;8.15;;
21721;SDS011;11023;48.274;7.794;2023-06-22T09:19:09;15.25;;;8.30;;
21721;SDS011;11023;48.274;7.794;2023-06-22T09:21:35;16.67;;;8.20;;
21721;SDS011;11023;48.274;7.794;2023-06-22T09:24:01;17.70;;;9.00;;
21721;SDS011;11023;48.274;7.794;2023-06-22T09:26:27;12.00;;;8.25;;
21721;SDS011;11023;48.274;7.794;2023-06-22T09:28:53;11.50;;;8.15;;
21721;SDS011;11023;48.274;7.794;2023-06-22T09:31:19;11.48;;;7.80;;
21721;SDS011;11023;48.274;7.794;2023-06-22T09:33:53;10.55;;;7.55;;
21721;SDS011;11023;48.274;7.794;2023-06-22T09:36:20;14.45;;;7.60;;
21721;SDS011;11023;48.274;7.794;2023-06-22T09:38:46;16.42;;;8.70;;
21721;SDS011;11023;48.274;7.794;2023-06-22T09:41:13;12.50;;;8.23;;
21721;SDS011;11023;48.274;7.794;2023-06-22T09:43:38;16.55;;;8.07;;
21721;SDS011;11023;48.274;7.794;2023-06-22T09:46:07;16.40;;;8.65;;
21721;SDS011;11023;48.274;7.794;2023-06-22T09:48:34;14.13;;;8.05;;
21721;SDS011;11023;48.274;7.794;2023-06-22T09:51:00;9.45;;;7.45;;
21721;SDS011;11023;48.274;7.794;2023-06-22T09:53:25;14.55;;;8.13;;
21721;SDS011;11023;48.274;7.794;2023-06-22T09:55:51;13.07;;;7.90;;
21721;SDS011;11023;48.274;7.794;2023-06-22T09:58:17;13.57;;;7.05;;
21721;SDS011;11023;48.274;7.794;2023-06-22T10:00:43;13.13;;;7.03;;
21721;SDS011;11023;48.274;7.794;2023-06-22T10:03:09;14.40;;;6.82;;
21721;SDS011;11023;48.274;7.794;2023-06-22T10:05:35;13.73;;;7.80;;
21721;SDS011;11023;48.274;7.794;2023-06-22T10:08:00;13.38;;;7.70;;
21721;SDS011;11023;48.274;7.794;2023-06-22T10:10:26;12.63;;;7.15;;
21721;SDS011;11023;48.274;7.794;2023-06-22T10:12:55;13.32;;;6.93;;
21721;SDS011;11023;48.274;7.794;2023-06-22T10:15:22;9.90;;;6.63;;
21721;SDS011;11023;48.274;7.794;2023-06-22T10:17:48;10.68;;;7.25;;
21721;SDS011;11023;48.274;7.794;2023-06-22T10:20:14;13.85;;;6.45;;
21721;SDS011;11023;48.274;7.794;2023-06-22T10:22:41;14.00;;;6.55;;
21721;SDS011;11023;48.274;7.794;2023-06-22T10:25:08;13.80;;;6.70;;
21721;SDS011;11023;48.274;7.794;2023-06-22T10:27:34;13.75;;;7.30;;
21721;SDS011;11023;48.274;7.794;2023-06-22T10:30:00;12.32;;;6.63;;
21721;SDS011;11023;48.274;7.794;2023-06-22T10:32:26;19.30;;;7.30;;
21721;SDS011;11023;48.274;7.794;2023-06-22T10:34:53;12.20;;;6.80;;
21721;SDS011;11023;48.274;7.794;2023-06-22T10:37:19;13.20;;;6.68;;
21721;SDS011;11023;48.274;7.794;2023-06-22T10:39:45;16.48;;;6.47;;
21721;SDS011;11023;48.274;7.794;2023-06-22T10:42:11;16.75;;;6.85;;
21721;SDS011;11023;48.274;7.794;2023-06-22T10:44:37;13.15;;;6.80;;
21721;SDS011;11023;48.274;7.794;2023-06-22T10:47:05;13.20;;;6.60;;
21721;SDS011;11023;48.274;7.794;2023-06-22T10:49:31;12.50;;;6.85;;
21721;SDS011;11023;48.274;7.794;2023-06-22T10:51:57;11.10;;;6.43;;
21721;SDS011;11023;48.274;7.794;2023-06-22T10:54:23;12.02;;;6.32;;
21721;SDS011;11023;48.274;7.794;2023-06-22T10:56:48;13.50;;;7.40;;
21721;SDS011;11023;48.274;7.794;2023-06-22T10:59:14;15.48;;;7.30;;
21721;SDS011;11023;48.274;7.794;2023-06-22T11:01:41;12.98;;;7.90;;
21721;SDS011;11023;48.274;7.794;2023-06-22T11:04:06;14.40;;;7.95;;
21721;SDS011;11023;48.274;7.794;2023-06-22T11:06:32;14.40;;;7.20;;
21721;SDS011;11023;48.274;7.794;2023-06-22T11:08:58;11.23;;;5.93;;
21721;SDS011;11023;48.274;7.794;2023-06-22T11:11:25;12.73;;;6.85;;
21721;SDS011;11023;48.274;7.794;2023-06-22T11:13:52;18.85;;;6.97;;
21721;SDS011;11023;48.274;7.794;2023-06-22T11:16:18;12.27;;;6.93;;
21721;SDS011;11023;48.274;7.794;2023-06-22T11:18:43;14.35;;;7.00;;
21721;SDS011;11023;48.274;7.794;2023-06-22T11:21:09;12.32;;;7.20;;
21721;SDS011;11023;48.274;7.794;2023-06-22T11:23:34;11.05;;;7.30;;
21721;SDS011;11023;48.274;7.794;2023-06-22T11:26:00;13.63;;;6.70;;
21721;SDS011;11023;48.274;7.794;2023-06-22T11:28:26;11.40;;;6.88;;
21721;SDS011;11023;48.274;7.794;2023-06-22T11:30:52;12.98;;;6.95;;
21721;SDS011;11023;48.274;7.794;2023-06-22T11:33:18;12.40;;;6.93;;
21721;SDS011;11023;48.274;7.794;2023-06-22T11:35:44;12.50;;;6.90;;
21721;SDS011;11023;48.274;7.794;2023-06-22T11:38:09;15.00;;;8.15;;
21721;SDS011;11023;48.274;7.794;2023-06-22T11:40:35;12.93;;;7.57;;
21721;SDS011;11023;48.274;7.794;2023-06-22T11:43:01;14.05;;;7.63;;
21721;SDS011;11023;48.274;7.794;2023-06-22T11:45:26;13.23;;;7.70;;
21721;SDS011;11023;48.274;7.794;2023-06-22T11:47:52;12.82;;;7.20;;
21721;SDS011;11023;48.274;7.794;2023-06-22T11:50:18;15.30;;;7.30;;
21721;SDS011;11023;48.274;7.794;2023-06-22T11:52:43;10.73;;;7.55;;
21721;SDS011;11023;48.274;7.794;2023-06-22T11:55:09;15.23;;;8.27;;
21721;SDS011;11023;48.274;7.794;2023-06-22T11:57:35;10.50;;;7.28;;
21721;SDS011;11023;48.274;7.794;2023-06-22T12:00:02;10.30;;;7.20;;
21721;SDS011;11023;48.274;7.794;2023-06-22T12:02:31;14.38;;;7.85;;
21721;SDS011;11023;48.274;7.794;2023-06-22T12:04:57;14.25;;;7.40;;
21721;SDS011;11023;48.274;7.794;2023-06-22T12:07:23;14.70;;;7.95;;
21721;SDS011;11023;48.274;7.794;2023-06-22T12:09:49;11.90;;;7.20;;
21721;SDS011;11023;48.274;7.794;2023-06-22T12:12:14;16.85;;;8.80;;
21721;SDS011;11023;48.274;7.794;2023-06-22T12:14:40;14.60;;;8.25;;
21721;SDS011;11023;48.274;7.794;2023-06-22T12:17:06;11.13;;;7.60;;
21721;SDS011;11023;48.274;7.794;2023-06-22T12:19:31;16.17;;;8.27;;
21721;SDS011;11023;48.274;7.794;2023-06-22T12:21:57;21.48;;;8.65;;
21721;SDS011;11023;48.274;7.794;2023-06-22T12:24:23;11.93;;;7.55;;
21721;SDS011;11023;48.274;7.794;2023-06-22T12:26:48;11.95;;;7.75;;
21721;SDS011;11023;48.274;7.794;2023-06-22T12:29:14;21.55;;;8.98;;
21721;SDS011;11023;48.274;7.794;2023-06-22T12:31:41;14.25;;;7.85;;
21721;SDS011;11023;48.274;7.794;2023-06-22T12:34:10;17.90;;;8.50;;
21721;SDS011;11023;48.274;7.794;2023-06-22T12:36:35;14.45;;;8.10;;
21721;SDS011;11023;48.274;7.794;2023-06-22T12:39:01;12.63;;;8.52;;
21721;SDS011;11023;48.274;7.794;2023-06-22T12:41:26;15.77;;;8.48;;
21721;SDS011;11023;48.274;7.794;2023-06-22T12:43:52;11.18;;;8.15;;
21721;SDS011;11023;48.274;7.794;2023-06-22T12:46:18;12.63;;;7.97;;
21721;SDS011;11023;48.274;7.794;2023-06-22T12:48:43;13.63;;;8.52;;
21721;SDS011;11023;48.274;7.794;2023-06-22T12:51:09;15.57;;;7.47;;
21721;SDS011;11023;48.274;7.794;2023-06-22T12:53:35;15.00;;;7.70;;
21721;SDS011;11023;48.274;7.794;2023-06-22T12:56:01;12.88;;;7.82;;
21721;SDS011;11023;48.274;7.794;2023-06-22T12:58:26;11.73;;;7.32;;
21721;SDS011;11023;48.274;7.794;2023-06-22T13:00:52;14.27;;;7.63;;
21721;SDS011;11023;48.274;7.794;2023-06-22T13:03:18;18.77;;;7.05;;
21721;SDS011;11023;48.274;7.794;2023-06-22T13:05:44;15.23;;;7.28;;
21721;SDS011;11023;48.274;7.794;2023-06-22T13:08:09;12.80;;;6.07;;
21721;SDS011;11023;48.274;7.794;2023-06-22T13:10:36;15.63;;;7.10;;
21721;SDS011;11023;48.274;7.794;2023-06-22T13:13:01;13.18;;;6.50;;
21721;SDS011;11023;48.274;7.794;2023-06-22T13:15:28;15.68;;;6.65;;
21721;SDS011;11023;48.274;7.794;2023-06-22T13:17:54;13.02;;;6.35;;
21721;SDS011;11023;48.274;7.794;2023-06-22T13:20:20;16.73;;;6.80;;
21721;SDS011;11023;48.274;7.794;2023-06-22T13:22:46;16.25;;;6.30;;
21721;SDS011;11023;48.274;7.794;2023-06-22T13:25:12;15.52;;;5.50;;
21721;SDS011;11023;48.274;7.794;2023-06-22T13:27:38;16.10;;;6.80;;
21721;SDS011;11023;48.274;7.794;2023-06-22T13:30:05;14.88;;;6.70;;
21721;SDS011;11023;48.274;7.794;2023-06-22T13:32:31;15.30;;;7.15;;
21721;SDS011;11023;48.274;7.794;2023-06-22T13:34:57;11.85;;;6.05;;
21721;SDS011;11023;48.274;7.794;2023-06-22T13:37:23;14.27;;;6.43;;
21721;SDS011;11023;48.274;7.794;2023-06-22T13:39:48;20.20;;;6.97;;
21721;SDS011;11023;48.274;7.794;2023-06-22T13:42:14;14.48;;;6.25;;
21721;SDS011;11023;48.274;7.794;2023-06-22T13:44:40;13.02;;;6.93;;
21721;SDS011;11023;48.274;7.794;2023-06-22T13:47:06;18.67;;;6.50;;
21721;SDS011;11023;48.274;7.794;2023-06-22T13:49:32;17.33;;;6.30;;
21721;SDS011;11023;48.274;7.794;2023-06-22T13:51:57;12.75;;;6.10;;
21721;SDS011;11023;48.274;7.794;2023-06-22T13:54:23;17.52;;;6.53;;
21721;SDS011;11023;48.274;7.794;2023-06-22T13:56:49;14.05;;;6.60;;
21721;SDS011;11023;48.274;7.794;2023-06-22T13:59:15;16.27;;;6.55;;
21721;SDS011;11023;48.274;7.794;2023-06-22T14:01:41;14.90;;;6.47;;
21721;SDS011;11023;48.274;7.794;2023-06-22T14:04:08;14.60;;;6.38;;
21721;SDS011;11023;48.274;7.794;2023-06-22T14:06:34;14.45;;;6.18;;
21721;SDS011;11023;48.274;7.794;2023-06-22T14:08:59;16.67;;;6.05;;
21721;SDS011;11023;48.274;7.794;2023-06-22T14:11:25;17.38;;;6.35;;
21721;SDS011;11023;48.274;7.794;2023-06-22T14:13:51;16.25;;;5.93;;
21721;SDS011;11023;48.274;7.794;2023-06-22T14:16:17;16.83;;;6.43;;
21721;SDS011;11023;48.274;7.794;2023-06-22T14:18:42;12.68;;;5.82;;
21721;SDS011;11023;48.274;7.794;2023-06-22T14:21:09;16.67;;;5.82;;
21721;SDS011;11023;48.274;7.794;2023-06-22T14:23:35;14.82;;;5.82;;
21721;SDS011;11023;48.274;7.794;2023-06-22T14:26:00;17.15;;;6.35;;
21721;SDS011;11023;48.274;7.794;2023-06-22T14:28:26;15.88;;;5.97;;
21721;SDS011;11023;48.274;7.794;2023-06-22T14:30:51;18.67;;;5.47;;
21721;SDS011;11023;48.274;7.794;2023-06-22T14:33:17;16.52;;;6.38;;
21721;SDS011;11023;48.274;7.794;2023-06-22T14:35:43;16.75;;;6.13;;
21721;SDS011;11023;48.274;7.794;2023-06-22T14:38:08;14.77;;;5.70;;
21721;SDS011;11023;48.274;7.794;2023-06-22T14:40:34;13.35;;;5.18;;
21721;SDS011;11023;48.274;7.794;2023-06-22T14:42:59;15.95;;;5.68;;
21721;SDS011;11023;48.274;7.794;2023-06-22T14:45:25;13.30;;;5.30;;
21721;SDS011;11023;48.274;7.794;2023-06-22T14:47:51;14.77;;;5.78;;
21721;SDS011;11023;48.274;7.794;2023-06-22T14:50:17;20.20;;;5.72;;
21721;SDS011;11023;48.274;7.794;2023-06-22T14:52:43;17.05;;;5.72;;
21721;SDS011;11023;48.274;7.794;2023-06-22T14:55:10;14.25;;;5.55;;
21721;SDS011;11023;48.274;7.794;2023-06-22T14:57:39;10.77;;;4.85;;
21721;SDS011;11023;48.274;7.794;2023-06-22T15:00:05;16.60;;;5.32;;
21721;SDS011;11023;48.274;7.794;2023-06-22T15:02:31;16.27;;;4.90;;
21721;SDS011;11023;48.274;7.794;2023-06-22T15:04:57;16.45;;;5.22;;
21721;SDS011;11023;48.274;7.794;2023-06-22T15:07:22;14.38;;;4.90;;
21721;SDS011;11023;48.274;7.794;2023-06-22T15:09:48;12.50;;;5.10;;
21721;SDS011;11023;48.274;7.794;2023-06-22T15:12:14;24.67;;;5.25;;
21721;SDS011;11023;48.274;7.794;2023-06-22T15:14:42;17.25;;;5.00;;
21721;SDS011;11023;48.274;7.794;2023-06-22T15:17:08;14.05;;;5.53;;
21721;SDS011;11023;48.274;7.794;2023-06-22T15:22:30;17.92;;;5.35;;
21721;SDS011;11023;48.274;7.794;2023-06-22T15:24:56;11.85;;;5.00;;
21721;SDS011;11023;48.274;7.794;2023-06-22T15:27:23;15.20;;;5.43;;
21721;SDS011;11023;48.274;7.794;2023-06-22T15:29:49;15.15;;;5.25;;
21721;SDS011;11023;48.274;7.794;2023-06-22T15:32:15;11.18;;;5.03;;
21721;SDS011;11023;48.274;7.794;2023-06-22T15:34:40;17.42;;;5.13;;
21721;SDS011;11023;48.274;7.794;2023-06-22T15:37:06;15.30;;;4.88;;
21721;SDS011;11023;48.274;7.794;2023-06-22T15:39:32;16.65;;;6.28;;
21721;SDS011;11023;48.274;7.794;2023-06-22T15:41:57;13.60;;;5.15;;
21721;SDS011;11023;48.274;7.794;2023-06-22T15:44:23;16.45;;;5.70;;
21721;SDS011;11023;48.274;7.794;2023-06-22T15:46:49;14.70;;;5.13;;
21721;SDS011;11023;48.274;7.794;2023-06-22T15:49:15;15.10;;;5.18;;
21721;SDS011;11023;48.274;7.794;2023-06-22T15:51:42;12.32;;;4.85;;
21721;SDS011;11023;48.274;7.794;2023-06-22T15:54:08;15.93;;;5.85;;
21721;SDS011;11023;48.274;7.794;2023-06-22T15:56:34;11.18;;;4.72;;
21721;SDS011;11023;48.274;7.794;2023-06-22T15:59:00;17.92;;;5.63;;
21721;SDS011;11023;48.274;7.794;2023-06-22T16:01:26;12.88;;;5.18;;
21721;SDS011;11023;48.274;7.794;2023-06-22T16:03:51;15.55;;;5.03;;
21721;SDS011;11023;48.274;7.794;2023-06-22T16:06:18;11.55;;;4.63;;
21721;SDS011;11023;48.274;7.794;2023-06-22T16:08:44;16.67;;;5.15;;
21721;SDS011;11023;48.274;7.794;2023-06-22T16:11:10;14.93;;;5.15;;
21721;SDS011;11023;48.274;7.794;2023-06-22T16:13:35;12.85;;;5.43;;
21721;SDS011;11023;48.274;7.794;2023-06-22T16:16:01;17.83;;;5.35;;
21721;SDS011;11023;48.274;7.794;2023-06-22T16:18:27;14.57;;;5.10;;